FHAW

Details ICAO FHAW
Name Ascension Wideawake Field
Region Saint Helena, Ascension and Tristan da Cunha
Timezone Atlantic/St_Helena (UTC+0.0)
Plans Departing 25
Arriving 42
Stats Elevation 278 ft / 85 m (AMSL)
Location -7.969590° -14.393699°
Runways 1
Magnetic Variation 15.477° W
Sunrise 2017-02-20 07:03:11 UTC / 2017-02-20 07:03:11 Local
Sunset 2017-02-20 19:22:20 UTC / 2017-02-20 19:22:20 Local
Advertisement - Login to hide

Runways

ID Width Length Bearing (true) Bearing (mag) Surface Threshold Offset Overrun Length
13 148 ft / 45 m 10,008 ft / 3,050 m 116.79° 132.27° Asphalt 0 ft / 0 m 262 ft / 80 m
31 148 ft / 45 m 10,008 ft / 3,050 m 296.79° 312.27° Asphalt 0 ft / 0 m 495 ft / 151 m

Map

Weather

Temperature
Clouds and Precipitation
Forecast for 2017-02-21 00:00 UTC. Updated an hour ago
Winds

METAR

FHAW 202050Z 13013KT 9999 FEW020 26/21 Q1013 BLU

TAF

TAF FHAW 201930Z 2021/2115 14014KT 9999 FEW020 PROB40 TEMPO 2021/2112 7000 -SHRA SCT016 PROB30 TEMPO 2112/2115 SCT018

Frequencies

Tower 126.20 MHz Wideawake Tower
Warning: Do not use this data for real-world aviation or navigation. No guarantee of current accuracy is given.